Flugplatz Hohn AB (ETNH)

Hier findest Du alle Informationen zum Flugplatz Hohn AB (ETNH).

Informationen für Piloten zum Flugplatz Hohn AB

Hier findest Du alle relevanten Informationen, die Du als Pilot benötigst, um Hohn AB anzufliegen.

Flugplatz: Hohn AB ICAO-Code: ETNH
Frequenz Turm: 122,100 Mhz GAFOR Gebiet: 3
Frequenz Ground: 122,100 Mhz Mogas: nein
Platzrunde: - Landegebühr: -
Platzhöhe: - Sunrise: 03:06 Uhr UTC
Pisten: 08/26 - 2.440 m x , BIT Sunset: 19:29 Uhr UTC

Flugwetter am Flugplatz Hohn AB

Die METAR Information stammen aus EDHK (39.89 km entfernt).

METAR Code:
2022/04/03 15:50
EDHK 031550Z AUTO 29017KT 9999 // FEW018/// SCT022/// BKN061/// 05/01 Q1015

Temperatur: 13,2 °C Niederschlag: - Wind: 5,2 kt (max.: 9,6 kt in Böen)
Temperatur (min.): 12,1 °C Luftdruck: 1018 hPa Windrichtung: 271 °
Temperatur (max.): 14,6 °C Luftfeuchtigkeit: 44 % Bewölkung: 8/8

Flugschulen am Flugplatz Hohn AB

Am Flugplatz Hohn AB gibt es leider keine Flugschule.

Benachbarte Flugplätze und Flugschulen

Es gibt 10 weitere Flugplätze in einem Umkreis von 50 km um den Flugplatz Hohn AB.

Jetzt anmelden

Passwort vergessen

Umfrage Archiv

Sendet Ihr ADS-B und/oder FLARM?

Ja
81.6 %
Nein
18.4 %
Stimmen: 147 | Diskussion
Anzeige: Roland Aircraft
Statistik Alle Mitglieder

Aktuell sind 73 Besucher online.

Anzeige: ULPower Aero Engines Anzeige: Pocket FMS